createdAt,value
2023-04-15T00:00:01.327Z,21.33
2023-04-15T00:01:01.240Z,21.57
2023-04-15T00:02:13.208Z,27.87
2023-04-15T00:03:01.718Z,20.47
2023-04-15T00:04:01.389Z,19.23
2023-04-15T00:05:01.577Z,17.63
2023-04-15T00:06:01.227Z,21.27
2023-04-15T00:07:01.622Z,23.77
2023-04-15T00:08:01.748Z,27.10
2023-04-15T00:09:01.539Z,21.03
2023-04-15T00:10:01.309Z,21.50
2023-04-15T00:11:01.261Z,22.47
2023-04-15T00:12:01.237Z,17.33
2023-04-15T00:13:01.269Z,19.43
2023-04-15T00:14:01.511Z,20.20
2023-04-15T00:15:01.325Z,23.23
2023-04-15T00:16:01.766Z,27.87
2023-04-15T00:17:01.816Z,25.20
2023-04-15T00:18:01.942Z,20.47
2023-04-15T00:19:01.655Z,20.30
2023-04-15T00:20:01.204Z,22.27
2023-04-15T00:21:01.293Z,22.33
2023-04-15T00:22:01.295Z,20.40
2023-04-15T00:23:02.260Z,16.43
2023-04-15T00:24:01.220Z,17.33
2023-04-15T00:25:01.616Z,26.60
2023-04-15T00:26:01.266Z,27.93
2023-04-15T00:27:01.246Z,22.47
2023-04-15T00:28:01.272Z,19.67
2023-04-15T00:29:01.508Z,19.27
2023-04-15T00:30:01.517Z,19.57
2023-04-15T00:31:01.279Z,18.17
2023-04-15T00:32:01.635Z,19.77
2023-04-15T00:33:01.604Z,19.33
2023-04-15T00:34:01.252Z,26.27
2023-04-15T00:35:01.263Z,21.50
2023-04-15T00:36:01.616Z,20.90
2023-04-15T00:37:01.672Z,25.70
2023-04-15T00:38:01.602Z,20.10
2023-04-15T00:39:01.421Z,20.33
2023-04-15T00:40:01.626Z,21.90
2023-04-15T00:41:02.709Z,28.80
2023-04-15T00:42:01.963Z,28.60
2023-04-15T00:43:01.912Z,23.17
2023-04-15T00:44:01.915Z,19.23
2023-04-15T00:45:01.643Z,29.43
2023-04-15T00:46:04.171Z,30.13
2023-04-15T00:47:03.489Z,25.17
2023-04-15T00:48:02.513Z,20.77
2023-04-15T00:49:02.981Z,26.23
2023-04-15T00:50:01.688Z,24.30
2023-04-15T00:51:01.294Z,20.73
2023-04-15T00:52:03.227Z,20.93
2023-04-15T00:53:01.214Z,23.97
2023-04-15T00:54:02.351Z,26.37
2023-04-15T00:55:01.992Z,39.13
2023-04-15T00:56:01.269Z,34.27
2023-04-15T00:57:01.572Z,23.33
2023-04-15T00:58:01.277Z,18.40
2023-04-15T00:59:01.881Z,17.23
2023-04-15T01:00:01.782Z,18.50
2023-04-15T01:01:01.373Z,20.43
2023-04-15T01:02:01.406Z,20.00
2023-04-15T01:03:02.003Z,18.03
2023-04-15T01:04:02.049Z,19.80
2023-04-15T01:05:01.942Z,22.70
2023-04-15T01:06:04.023Z,16.73
2023-04-15T01:07:01.552Z,18.77
2023-04-15T01:08:02.096Z,20.57
2023-04-15T01:09:02.036Z,19.77
2023-04-15T01:10:02.741Z,18.20
2023-04-15T01:11:02.675Z,17.43
2023-04-15T01:12:01.630Z,18.77
2023-04-15T01:13:02.633Z,17.43
2023-04-15T01:14:02.762Z,18.93
2023-04-15T01:15:01.396Z,19.03
2023-04-15T01:16:01.940Z,21.47
2023-04-15T01:17:01.652Z,28.30
2023-04-15T01:18:02.014Z,22.93
2023-04-15T01:19:02.093Z,18.53
2023-04-15T01:20:01.857Z,17.80
2023-04-15T01:21:01.381Z,18.60
2023-04-15T01:22:02.367Z,16.43
2023-04-15T01:23:01.894Z,17.43
2023-04-15T01:24:03.564Z,18.20
2023-04-15T01:25:11.202Z,19.93
2023-04-15T01:26:01.554Z,20.13
2023-04-15T01:27:01.610Z,18.27
2023-04-15T01:28:01.953Z,17.40
2023-04-15T01:29:01.717Z,19.87
2023-04-15T01:30:01.281Z,19.00
2023-04-15T01:31:05.536Z,18.20
2023-04-15T01:32:01.514Z,18.73
2023-04-15T01:33:01.754Z,18.07
2023-04-15T01:34:01.579Z,19.80
2023-04-15T01:35:01.232Z,20.00
2023-04-15T01:36:02.266Z,18.30
2023-04-15T01:37:01.234Z,16.07
2023-04-15T01:38:05.446Z,18.87
2023-04-15T01:39:01.912Z,17.20
2023-04-15T01:40:01.695Z,19.07
2023-04-15T01:41:01.829Z,17.07
2023-04-15T01:42:01.286Z,17.20
2023-04-15T01:43:02.182Z,18.27
2023-04-15T01:44:01.599Z,18.20
2023-04-15T01:45:01.681Z,17.40
2023-04-15T01:46:01.294Z,16.63
2023-04-15T01:47:01.699Z,17.27
2023-04-15T01:48:01.584Z,17.73
2023-04-15T01:49:01.967Z,17.43
2023-04-15T01:50:01.219Z,18.70
2023-04-15T01:51:01.217Z,18.47
2023-04-15T01:52:01.521Z,18.47
2023-04-15T01:53:01.304Z,17.17
2023-04-15T01:54:01.627Z,17.87
2023-04-15T01:55:01.644Z,17.00
2023-04-15T01:56:01.593Z,17.27
2023-04-15T01:57:01.305Z,17.63
2023-04-15T01:58:01.522Z,17.73
2023-04-15T01:59:01.859Z,17.80
2023-04-15T02:00:01.301Z,17.13
2023-04-15T02:01:01.872Z,16.57
2023-04-15T02:02:01.233Z,16.73
2023-04-15T02:03:01.367Z,16.73
2023-04-15T02:04:01.601Z,15.37
2023-04-15T02:05:01.238Z,20.50
2023-04-15T02:06:01.617Z,19.47
2023-04-15T02:07:01.752Z,17.33
2023-04-15T02:08:01.283Z,18.00
2023-04-15T02:09:01.697Z,17.43
2023-04-15T02:10:01.732Z,17.40
2023-04-15T02:11:01.581Z,18.73
2023-04-15T02:12:01.591Z,17.03
2023-04-15T02:13:01.266Z,17.70
2023-04-15T02:14:01.266Z,17.17
2023-04-15T02:15:01.650Z,20.00
2023-04-15T02:16:02.740Z,17.67
2023-04-15T02:17:01.218Z,19.27
2023-04-15T02:18:01.607Z,20.47
2023-04-15T02:19:01.804Z,16.90
2023-04-15T02:20:01.971Z,16.93
2023-04-15T02:21:01.281Z,17.60
2023-04-15T02:22:01.722Z,16.30
2023-04-15T02:23:01.266Z,17.37
2023-04-15T02:24:01.224Z,17.90
2023-04-15T02:25:01.210Z,17.80
2023-04-15T02:26:01.219Z,16.63
2023-04-15T02:27:01.540Z,16.80
2023-04-15T02:28:01.274Z,15.67
2023-04-15T02:29:01.675Z,16.10
2023-04-15T02:30:01.642Z,17.87
2023-04-15T02:31:05.027Z,16.60
2023-04-15T02:32:01.293Z,16.60
2023-04-15T02:33:01.991Z,18.37
2023-04-15T02:34:01.689Z,15.90
2023-04-15T02:35:02.120Z,17.50
2023-04-15T02:36:01.590Z,17.07
2023-04-15T02:37:01.267Z,17.50
2023-04-15T02:38:01.574Z,18.90
2023-04-15T02:39:01.945Z,17.73
2023-04-15T02:40:01.253Z,16.50
2023-04-15T02:41:01.644Z,16.90
2023-04-15T02:42:01.587Z,17.27
2023-04-15T02:43:01.293Z,17.60
2023-04-15T02:44:01.226Z,16.13
2023-04-15T02:45:01.249Z,15.53
2023-04-15T02:46:01.424Z,17.20
2023-04-15T02:47:01.663Z,16.97
2023-04-15T02:48:01.531Z,15.03
2023-04-15T02:49:01.424Z,15.80
2023-04-15T02:50:03.064Z,16.87
2023-04-15T02:51:12.342Z,18.67
2023-04-15T02:52:01.228Z,16.53
2023-04-15T02:53:01.792Z,17.67
2023-04-15T02:54:01.227Z,17.93
2023-04-15T02:55:01.266Z,17.87
2023-04-15T02:56:01.271Z,17.07
2023-04-15T02:57:01.585Z,17.00
2023-04-15T02:58:01.254Z,17.20
2023-04-15T02:59:01.945Z,16.83
2023-04-15T03:00:01.271Z,16.27
2023-04-15T03:01:01.320Z,16.47
2023-04-15T03:02:01.370Z,16.33
2023-04-15T03:03:03.287Z,16.50
2023-04-15T03:04:01.630Z,16.67
2023-04-15T03:05:01.924Z,15.30
2023-04-15T03:06:01.643Z,15.97
2023-04-15T03:07:01.591Z,17.33
2023-04-15T03:08:01.504Z,17.37
2023-04-15T03:09:01.892Z,17.80
2023-04-15T03:10:01.262Z,17.90
2023-04-15T03:11:01.540Z,16.50
2023-04-15T03:12:01.754Z,16.40
2023-04-15T03:13:01.302Z,16.93
2023-04-15T03:14:01.212Z,16.57
2023-04-15T03:15:01.355Z,16.87
2023-04-15T03:16:01.232Z,17.10
2023-04-15T03:17:01.591Z,16.90
2023-04-15T03:18:01.649Z,17.03
2023-04-15T03:19:01.798Z,16.93
2023-04-15T03:20:02.032Z,17.07
2023-04-15T03:21:01.607Z,16.57
2023-04-15T03:22:01.232Z,16.77
2023-04-15T03:23:01.548Z,16.80
2023-04-15T03:24:01.337Z,15.87
2023-04-15T03:25:01.260Z,15.70
2023-04-15T03:26:01.764Z,15.17
2023-04-15T03:27:01.206Z,16.07
2023-04-15T03:28:01.270Z,15.30
2023-04-15T03:29:01.803Z,16.63
2023-04-15T03:30:01.237Z,15.13
2023-04-15T03:31:01.268Z,15.90
2023-04-15T03:32:01.266Z,15.90
2023-04-15T03:33:01.352Z,15.97
2023-04-15T03:34:01.673Z,15.63
2023-04-15T03:35:01.274Z,16.03
2023-04-15T03:36:01.250Z,16.57
2023-04-15T03:37:01.357Z,15.83
2023-04-15T03:38:01.250Z,16.63
2023-04-15T03:39:01.940Z,15.37
2023-04-15T03:40:01.857Z,16.33
2023-04-15T03:41:01.211Z,16.53
2023-04-15T03:42:01.291Z,15.57
2023-04-15T03:43:01.518Z,13.87
2023-04-15T03:44:01.251Z,16.03
2023-04-15T03:45:01.617Z,16.87
2023-04-15T03:46:02.007Z,16.97
2023-04-15T03:47:01.575Z,16.90
2023-04-15T03:48:11.483Z,14.87
2023-04-15T03:49:01.924Z,15.73
2023-04-15T03:50:01.615Z,15.27
2023-04-15T03:51:01.264Z,15.10
2023-04-15T03:52:01.298Z,17.57
2023-04-15T03:53:01.439Z,14.27
2023-04-15T03:54:01.524Z,15.70
2023-04-15T03:55:01.251Z,15.90
2023-04-15T03:56:01.701Z,13.80
2023-04-15T03:57:01.544Z,18.20
2023-04-15T03:58:01.254Z,16.27
2023-04-15T03:59:01.707Z,14.33
2023-04-15T04:00:01.263Z,16.13
2023-04-15T04:01:01.836Z,16.77
2023-04-15T04:02:01.251Z,16.80
2023-04-15T04:03:01.370Z,15.00
2023-04-15T04:04:01.354Z,15.83
2023-04-15T04:05:01.581Z,15.87
2023-04-15T04:06:01.243Z,15.93
2023-04-15T04:07:01.265Z,15.93
2023-04-15T04:08:01.210Z,15.87
2023-04-15T04:09:01.359Z,16.60
2023-04-15T04:10:02.341Z,16.90
2023-04-15T04:11:01.611Z,16.10
2023-04-15T04:12:01.296Z,17.63
2023-04-15T04:13:01.259Z,14.97
2023-04-15T04:14:01.204Z,17.37
2023-04-15T04:15:01.753Z,17.20
2023-04-15T04:16:01.342Z,16.30
2023-04-15T04:17:01.269Z,16.57
2023-04-15T04:18:01.333Z,15.50
2023-04-15T04:19:01.470Z,15.33
2023-04-15T04:20:01.285Z,14.80
2023-04-15T04:21:01.899Z,14.97
2023-04-15T04:22:01.922Z,15.07
2023-04-15T04:23:01.261Z,14.27
2023-04-15T04:24:01.669Z,15.07
2023-04-15T04:25:01.260Z,15.23
2023-04-15T04:26:01.599Z,16.20
2023-04-15T04:27:01.243Z,15.10
2023-04-15T04:28:01.717Z,15.47
2023-04-15T04:29:01.455Z,16.77
2023-04-15T04:30:01.317Z,15.33
2023-04-15T04:31:01.694Z,17.63
2023-04-15T04:32:01.972Z,15.63
2023-04-15T04:33:01.611Z,16.03
2023-04-15T04:34:01.547Z,15.03
2023-04-15T04:35:01.253Z,16.43
2023-04-15T04:36:01.227Z,16.20
2023-04-15T04:37:01.298Z,16.23
2023-04-15T04:38:01.256Z,17.20
2023-04-15T04:39:01.800Z,16.00
2023-04-15T04:40:01.422Z,16.60
2023-04-15T04:41:01.639Z,16.43
2023-04-15T04:42:01.316Z,15.70
2023-04-15T04:43:01.849Z,17.37
2023-04-15T04:44:01.581Z,17.07
2023-04-15T04:45:01.551Z,17.97
2023-04-15T04:46:01.619Z,15.90
2023-04-15T04:47:01.272Z,17.50
2023-04-15T04:48:01.698Z,17.50
2023-04-15T04:49:01.572Z,16.27
2023-04-15T04:50:01.583Z,17.27
2023-04-15T04:51:01.554Z,16.20
2023-04-15T04:52:01.720Z,14.83
2023-04-15T04:53:01.832Z,14.37
2023-04-15T04:54:03.700Z,16.10
2023-04-15T04:55:01.283Z,17.70
2023-04-15T04:56:01.209Z,15.93
2023-04-15T04:57:01.204Z,16.33
2023-04-15T04:58:01.279Z,14.90
2023-04-15T04:59:01.807Z,14.97
2023-04-15T05:00:01.306Z,16.90
2023-04-15T05:01:01.689Z,15.93
2023-04-15T05:02:01.385Z,16.93
2023-04-15T05:03:01.633Z,16.47
2023-04-15T05:04:01.840Z,16.80
2023-04-15T05:05:01.511Z,16.03
2023-04-15T05:06:01.276Z,15.10
2023-04-15T05:07:01.617Z,15.97
2023-04-15T05:08:01.257Z,15.67
2023-04-15T05:09:01.749Z,16.73
2023-04-15T05:10:01.224Z,15.73
2023-04-15T05:11:01.913Z,17.30
2023-04-15T05:12:01.601Z,17.97
2023-04-15T05:13:01.274Z,17.07
2023-04-15T05:14:01.622Z,16.67
2023-04-15T05:15:01.548Z,16.30
2023-04-15T05:16:01.814Z,17.00
2023-04-15T05:17:01.264Z,16.40
2023-04-15T05:18:01.346Z,16.57
2023-04-15T05:19:01.510Z,16.70
2023-04-15T05:20:01.950Z,17.27
2023-04-15T05:21:02.027Z,16.37
2023-04-15T05:22:01.323Z,15.30
2023-04-15T05:23:01.304Z,16.13
2023-04-15T05:24:01.284Z,17.83
2023-04-15T05:25:01.217Z,16.07
2023-04-15T05:26:01.602Z,16.03
2023-04-15T05:27:01.515Z,15.70
2023-04-15T05:28:01.564Z,16.20
2023-04-15T05:29:01.684Z,17.17
2023-04-15T05:30:01.667Z,15.80
2023-04-15T05:31:01.434Z,17.17
2023-04-15T05:32:01.243Z,17.13
2023-04-15T05:33:01.331Z,17.17
2023-04-15T05:34:01.385Z,15.30
2023-04-15T05:35:01.669Z,16.07
2023-04-15T05:36:01.563Z,15.03
2023-04-15T05:37:01.310Z,16.30
2023-04-15T05:38:01.456Z,16.77
2023-04-15T05:39:01.440Z,16.50
2023-04-15T05:40:01.286Z,16.43
2023-04-15T05:41:01.675Z,15.90
2023-04-15T05:42:01.604Z,15.93
2023-04-15T05:43:01.286Z,15.10
2023-04-15T05:44:01.705Z,15.90
2023-04-15T05:45:01.681Z,15.23
2023-04-15T05:46:01.555Z,15.13
2023-04-15T05:47:01.267Z,14.83
2023-04-15T05:48:01.601Z,16.37
2023-04-15T05:49:01.544Z,16.23
2023-04-15T05:50:01.256Z,16.27
2023-04-15T05:51:01.666Z,15.40
2023-04-15T05:52:01.644Z,14.40
2023-04-15T05:53:01.206Z,15.70
2023-04-15T05:54:01.270Z,14.53
2023-04-15T05:55:01.293Z,14.83
2023-04-15T05:56:01.234Z,15.37
2023-04-15T05:57:01.397Z,14.17
2023-04-15T05:58:01.209Z,15.03
2023-04-15T05:59:01.328Z,13.97
2023-04-15T06:00:02.038Z,15.73
2023-04-15T06:01:01.961Z,15.33
2023-04-15T06:02:01.358Z,13.40
2023-04-15T06:03:01.545Z,15.33
2023-04-15T06:04:01.275Z,14.90
2023-04-15T06:05:01.800Z,13.57
2023-04-15T06:06:01.255Z,13.80
2023-04-15T06:07:01.300Z,15.70
2023-04-15T06:08:01.260Z,15.07
2023-04-15T06:09:01.494Z,15.87
2023-04-15T06:10:01.273Z,13.80
2023-04-15T06:11:01.687Z,15.40
2023-04-15T06:12:01.650Z,15.53
2023-04-15T06:13:01.298Z,14.73
2023-04-15T06:14:01.620Z,15.83
2023-04-15T06:15:01.627Z,15.10
2023-04-15T06:16:01.309Z,15.50
2023-04-15T06:17:01.219Z,14.80
2023-04-15T06:18:01.621Z,14.33
2023-04-15T06:19:01.509Z,15.60
2023-04-15T06:20:01.325Z,15.33
2023-04-15T06:21:01.631Z,13.87
2023-04-15T06:22:01.782Z,14.57
2023-04-15T06:23:01.218Z,13.97
2023-04-15T06:24:01.270Z,12.70
2023-04-15T06:25:01.645Z,14.40
2023-04-15T06:26:01.316Z,14.03
2023-04-15T06:27:01.206Z,15.27
2023-04-15T06:28:01.300Z,14.83
2023-04-15T06:29:01.472Z,14.43
2023-04-15T06:30:01.303Z,14.27
2023-04-15T06:31:01.256Z,15.40
2023-04-15T06:32:01.238Z,15.60
2023-04-15T06:33:01.607Z,14.00
2023-04-15T06:34:01.275Z,14.10
2023-04-15T06:35:01.588Z,14.47
2023-04-15T06:36:01.301Z,13.80
2023-04-15T06:37:01.282Z,14.47
2023-04-15T06:38:01.606Z,14.37
2023-04-15T06:39:01.496Z,14.40
2023-04-15T06:40:01.657Z,15.53
2023-04-15T06:41:02.581Z,14.67
2023-04-15T06:42:02.212Z,15.00
2023-04-15T06:43:01.308Z,14.87
2023-04-15T06:44:02.177Z,13.87
2023-04-15T06:45:01.768Z,13.23
2023-04-15T06:46:01.324Z,14.10
2023-04-15T06:47:01.545Z,13.43
2023-04-15T06:48:01.308Z,14.53
2023-04-15T06:49:01.417Z,14.33
2023-04-15T06:50:01.278Z,14.70
2023-04-15T06:51:01.319Z,15.77
2023-04-15T06:52:01.529Z,14.30
2023-04-15T06:53:01.301Z,15.43
2023-04-15T06:54:01.213Z,14.30
2023-04-15T06:55:01.831Z,13.67
2023-04-15T06:56:01.230Z,13.27
2023-04-15T06:57:01.270Z,12.80
2023-04-15T06:58:01.634Z,12.67
2023-04-15T06:59:02.083Z,13.33
2023-04-15T07:00:02.352Z,12.93
2023-04-15T07:01:01.847Z,12.00
2023-04-15T07:02:01.332Z,13.07
2023-04-15T07:03:01.313Z,11.80
2023-04-15T07:04:01.544Z,13.20
2023-04-15T07:05:01.661Z,11.03
2023-04-15T07:06:01.523Z,11.07
2023-04-15T07:07:01.256Z,10.77
2023-04-15T07:08:01.264Z,11.03
2023-04-15T07:09:01.708Z,12.17
2023-04-15T07:10:01.521Z,11.27
2023-04-15T07:11:01.689Z,12.30
2023-04-15T07:12:01.269Z,11.90
2023-04-15T07:13:01.251Z,12.70
2023-04-15T07:14:01.635Z,11.40
2023-04-15T07:15:01.322Z,12.40
2023-04-15T07:16:01.656Z,11.70
2023-04-15T07:17:01.872Z,11.70
2023-04-15T07:18:01.314Z,10.63
2023-04-15T07:19:01.831Z,9.70
2023-04-15T07:20:01.408Z,9.80
2023-04-15T07:21:01.221Z,9.53
2023-04-15T07:22:01.258Z,9.53
2023-04-15T07:23:01.298Z,9.77
2023-04-15T07:24:01.547Z,8.90
2023-04-15T07:25:01.294Z,9.57
2023-04-15T07:26:02.589Z,9.70
2023-04-15T07:27:01.682Z,7.57
2023-04-15T07:28:02.153Z,8.03
2023-04-15T07:29:01.680Z,8.57
2023-04-15T07:30:01.834Z,7.67
2023-04-15T07:31:01.340Z,9.00
2023-04-15T07:32:01.610Z,8.37
2023-04-15T07:33:01.839Z,8.47
2023-04-15T07:34:01.220Z,9.03
2023-04-15T07:35:01.549Z,9.83
2023-04-15T07:36:01.592Z,7.97
2023-04-15T07:37:01.274Z,9.03
2023-04-15T07:38:01.224Z,8.43
2023-04-15T07:39:01.526Z,7.73
2023-04-15T07:40:01.656Z,8.50
2023-04-15T07:41:02.018Z,7.03
2023-04-15T07:42:01.241Z,7.70
2023-04-15T07:43:01.258Z,6.80
2023-04-15T07:44:01.297Z,8.23
2023-04-15T07:45:01.713Z,7.10
2023-04-15T07:46:01.288Z,7.27
2023-04-15T07:47:02.625Z,7.60
2023-04-15T07:48:01.701Z,5.93
2023-04-15T07:49:01.563Z,8.07
2023-04-15T07:50:02.157Z,7.00
2023-04-15T07:51:01.252Z,6.43
2023-04-15T07:52:01.283Z,5.40
2023-04-15T07:53:01.236Z,6.93
2023-04-15T07:54:01.642Z,5.37
2023-04-15T07:55:01.266Z,7.27
2023-04-15T07:56:01.608Z,6.37
2023-04-15T07:57:01.606Z,7.30
2023-04-15T07:58:01.566Z,6.80
2023-04-15T07:59:01.634Z,6.90
2023-04-15T08:00:01.739Z,6.10
2023-04-15T08:01:01.591Z,6.87
2023-04-15T08:02:01.700Z,6.50
2023-04-15T08:03:01.468Z,6.50
2023-04-15T08:04:01.788Z,6.63
2023-04-15T08:05:01.313Z,5.63
2023-04-15T08:06:01.558Z,5.90
2023-04-15T08:07:02.651Z,7.63
2023-04-15T08:08:01.677Z,7.27
2023-04-15T08:09:01.607Z,6.40
2023-04-15T08:10:01.609Z,6.40
2023-04-15T08:11:01.587Z,7.77
2023-04-15T08:12:01.509Z,7.30
2023-04-15T08:13:01.246Z,6.00
2023-04-15T08:14:01.654Z,6.77
2023-04-15T08:15:01.668Z,7.50
2023-04-15T08:16:16.918Z,7.07
2023-04-15T08:17:01.290Z,6.87
2023-04-15T08:18:01.275Z,5.70
2023-04-15T08:19:01.444Z,6.27
2023-04-15T08:20:02.540Z,6.27
2023-04-15T08:21:01.288Z,6.00
2023-04-15T08:22:01.320Z,6.43
2023-04-15T08:23:01.603Z,5.67
2023-04-15T08:24:01.434Z,7.13
2023-04-15T08:25:01.644Z,7.17
2023-04-15T08:26:01.560Z,7.23
2023-04-15T08:27:02.409Z,8.07
2023-04-15T08:28:04.119Z,6.23
2023-04-15T08:29:01.432Z,5.87
2023-04-15T08:30:04.159Z,6.60
2023-04-15T08:31:01.298Z,6.67
2023-04-15T08:32:01.935Z,8.07
2023-04-15T08:33:01.377Z,6.30
2023-04-15T08:34:01.533Z,6.33
2023-04-15T08:35:01.613Z,7.87
2023-04-15T08:36:01.598Z,7.43
2023-04-15T08:37:01.542Z,7.60
2023-04-15T08:38:01.207Z,8.20
2023-04-15T08:39:01.583Z,6.60
2023-04-15T08:40:01.555Z,7.03
2023-04-15T08:41:07.152Z,6.83
2023-04-15T08:42:03.055Z,6.27
2023-04-15T08:43:04.568Z,6.40
2023-04-15T08:44:04.649Z,5.97
2023-04-15T08:45:03.888Z,7.27
2023-04-15T08:46:03.362Z,6.63
2023-04-15T08:47:03.237Z,7.57
2023-04-15T08:48:05.295Z,7.00
2023-04-15T08:49:04.067Z,6.97
2023-04-15T08:50:03.554Z,7.77
2023-04-15T08:51:01.941Z,6.00
2023-04-15T08:52:02.452Z,7.53
2023-04-15T08:53:01.622Z,6.80
2023-04-15T08:54:03.123Z,6.23
2023-04-15T08:55:02.556Z,6.80
2023-04-15T08:56:04.257Z,7.70
2023-04-15T08:57:02.368Z,7.17
2023-04-15T08:58:02.078Z,8.40
2023-04-15T08:59:01.896Z,7.53
2023-04-15T09:00:03.982Z,5.77
2023-04-15T09:01:02.128Z,7.00
2023-04-15T09:02:02.840Z,7.37
2023-04-15T09:03:01.709Z,6.77
2023-04-15T09:04:02.838Z,7.00
2023-04-15T09:05:01.769Z,6.33
2023-04-15T09:06:04.082Z,7.27
2023-04-15T09:07:01.494Z,6.53
2023-04-15T09:08:02.155Z,7.67
2023-04-15T09:09:01.547Z,6.87
2023-04-15T09:10:03.105Z,5.87
2023-04-15T09:11:02.115Z,6.77
2023-04-15T09:12:01.245Z,6.47
2023-04-15T09:13:01.355Z,6.57
2023-04-15T09:14:01.285Z,6.90
2023-04-15T09:15:02.172Z,6.20
2023-04-15T09:16:02.039Z,5.93
2023-04-15T09:17:03.178Z,6.77
2023-04-15T09:18:01.469Z,6.83
2023-04-15T09:19:19.875Z,6.90
2023-04-15T09:20:10.416Z,6.77
2023-04-15T09:21:05.724Z,6.80
2023-04-15T09:22:01.874Z,7.43
2023-04-15T09:23:12.008Z,6.50
2023-04-15T09:24:01.947Z,5.83
2023-04-15T09:25:01.684Z,6.47
2023-04-15T09:26:01.894Z,6.47
2023-04-15T09:27:01.488Z,6.90
2023-04-15T09:28:01.889Z,6.47
2023-04-15T09:29:04.312Z,6.53
2023-04-15T09:30:01.275Z,5.87
2023-04-15T09:31:02.046Z,5.90
2023-04-15T09:32:11.967Z,6.53
2023-04-15T09:33:03.199Z,6.73
2023-04-15T09:34:01.919Z,5.80
2023-04-15T09:35:10.266Z,7.13
2023-04-15T09:36:03.269Z,7.00
2023-04-15T09:37:01.589Z,6.40
2023-04-15T09:38:03.804Z,5.67
2023-04-15T09:39:01.617Z,7.20
2023-04-15T09:40:01.755Z,7.40
2023-04-15T09:41:01.260Z,6.13
2023-04-15T09:42:05.927Z,8.00
2023-04-15T09:43:01.902Z,7.37
2023-04-15T09:44:01.522Z,7.00
2023-04-15T09:45:08.460Z,6.10
2023-04-15T09:46:01.313Z,6.43
2023-04-15T09:47:01.218Z,7.20
2023-04-15T09:48:16.185Z,6.67
2023-04-15T09:49:07.809Z,7.70
2023-04-15T09:50:01.828Z,6.63
2023-04-15T09:51:01.863Z,6.37
2023-04-15T09:52:06.119Z,7.17
2023-04-15T09:53:03.160Z,6.87
2023-04-15T09:54:01.808Z,7.60
2023-04-15T09:55:01.262Z,7.43
2023-04-15T09:56:02.334Z,8.17
2023-04-15T09:57:05.477Z,8.40
2023-04-15T09:58:01.225Z,6.70
2023-04-15T09:59:01.538Z,6.87
2023-04-15T10:00:01.534Z,7.30
2023-04-15T10:01:03.979Z,7.30
2023-04-15T10:02:04.484Z,7.03
2023-04-15T10:03:03.410Z,7.27
2023-04-15T10:04:04.187Z,7.73
2023-04-15T10:05:02.710Z,7.83
2023-04-15T10:06:01.968Z,7.83
2023-04-15T10:07:04.031Z,9.40
2023-04-15T10:08:02.253Z,7.13
2023-04-15T10:09:01.993Z,7.03
2023-04-15T10:10:03.478Z,8.00
2023-04-15T10:11:02.340Z,7.97
2023-04-15T10:12:02.434Z,7.23
2023-04-15T10:13:01.581Z,6.80
2023-04-15T10:14:02.608Z,7.07
2023-04-15T10:15:04.708Z,8.30
2023-04-15T10:16:05.926Z,8.10
2023-04-15T10:17:02.741Z,7.83
2023-04-15T10:18:04.584Z,8.07
2023-04-15T10:19:01.734Z,8.07
2023-04-15T10:20:02.874Z,7.07
2023-04-15T10:21:01.633Z,7.20
2023-04-15T10:22:01.490Z,8.37
2023-04-15T10:23:02.084Z,7.60
2023-04-15T10:24:04.096Z,7.80
2023-04-15T10:25:02.391Z,7.60
2023-04-15T10:26:03.557Z,6.90
2023-04-15T10:27:02.986Z,7.40
2023-04-15T10:28:02.118Z,8.87
2023-04-15T10:29:02.195Z,8.17
2023-04-15T10:30:02.303Z,8.33
2023-04-15T10:31:01.740Z,6.57
2023-04-15T10:32:02.797Z,8.27
2023-04-15T10:33:03.559Z,8.43
2023-04-15T10:34:02.076Z,7.07
2023-04-15T10:35:02.301Z,7.20
2023-04-15T10:36:01.904Z,7.90
2023-04-15T10:37:02.339Z,6.97
2023-04-15T10:38:01.845Z,7.17
2023-04-15T10:39:01.275Z,7.53
2023-04-15T10:40:20.675Z,7.47
2023-04-15T10:41:13.069Z,5.90
2023-04-15T10:42:10.534Z,6.47
2023-04-15T10:43:02.475Z,7.27
2023-04-15T10:44:03.419Z,7.93
2023-04-15T10:45:01.665Z,8.10
2023-04-15T10:46:01.491Z,7.00
2023-04-15T10:47:09.019Z,8.00
2023-04-15T10:48:03.884Z,5.77
2023-04-15T10:49:07.820Z,6.50
2023-04-15T10:50:01.716Z,7.80
2023-04-15T10:51:01.605Z,7.93
2023-04-15T10:52:01.478Z,7.00
2023-04-15T10:53:03.154Z,6.87
2023-04-15T10:54:01.265Z,6.77
2023-04-15T10:55:03.255Z,6.30
2023-04-15T10:56:04.111Z,6.80
2023-04-15T10:57:08.769Z,7.20
2023-04-15T10:58:02.122Z,6.90
2023-04-15T10:59:04.326Z,6.27
2023-04-15T11:00:11.767Z,6.70
2023-04-15T11:01:01.646Z,6.07
2023-04-15T11:02:03.639Z,6.90
2023-04-15T11:03:06.465Z,7.53
2023-04-15T11:04:02.055Z,6.77
2023-04-15T11:05:01.619Z,6.83
2023-04-15T11:06:01.401Z,6.30
2023-04-15T11:07:07.140Z,6.83
2023-04-15T11:08:01.785Z,7.57
2023-04-15T11:09:01.352Z,6.50
2023-04-15T11:10:02.071Z,5.20
2023-04-15T11:11:01.227Z,7.20
2023-04-15T11:12:05.320Z,6.17
2023-04-15T11:13:03.159Z,6.43
2023-04-15T11:14:02.360Z,6.33
2023-04-15T11:15:20.705Z,7.10
2023-04-15T11:16:02.370Z,5.87
2023-04-15T11:17:01.244Z,7.40
2023-04-15T11:18:09.615Z,6.87
2023-04-15T11:19:01.490Z,5.57
2023-04-15T11:20:01.880Z,5.87
2023-04-15T11:21:04.278Z,7.03
2023-04-15T11:22:05.826Z,6.87
2023-04-15T11:23:14.042Z,7.37
2023-04-15T11:24:02.372Z,5.33
2023-04-15T11:25:01.207Z,7.63
2023-04-15T11:26:03.229Z,5.73
2023-04-15T11:27:01.490Z,5.27
2023-04-15T11:28:01.784Z,6.60
2023-04-15T11:29:01.760Z,7.17
2023-04-15T11:30:11.380Z,7.63
2023-04-15T11:31:07.043Z,7.77
2023-04-15T11:32:05.811Z,8.83
2023-04-15T11:33:03.969Z,8.33
2023-04-15T11:34:01.990Z,7.17
2023-04-15T11:35:01.286Z,6.77
2023-04-15T11:36:01.394Z,6.67
2023-04-15T11:37:04.172Z,8.70
2023-04-15T11:38:02.827Z,9.03
2023-04-15T11:39:01.286Z,10.23
2023-04-15T11:40:02.192Z,9.77
2023-04-15T11:41:02.001Z,8.83
2023-04-15T11:42:01.402Z,9.63
2023-04-15T11:43:06.670Z,10.23
2023-04-15T11:44:01.825Z,10.50
2023-04-15T11:45:06.736Z,10.53
2023-04-15T11:46:02.500Z,10.30
2023-04-15T11:47:01.241Z,9.90
2023-04-15T11:48:06.096Z,8.97
2023-04-15T11:49:01.666Z,9.20
2023-04-15T11:50:14.764Z,10.70
2023-04-15T11:51:03.202Z,9.10
2023-04-15T11:52:09.920Z,10.07
2023-04-15T11:53:03.000Z,9.10
2023-04-15T11:54:02.013Z,8.83
2023-04-15T11:55:03.262Z,8.60
2023-04-15T11:56:01.305Z,8.77
2023-04-15T11:57:01.617Z,9.70
2023-04-15T11:58:09.627Z,8.10
2023-04-15T11:59:02.216Z,9.17
2023-04-15T12:00:01.214Z,9.10
2023-04-15T12:01:01.740Z,9.77
2023-04-15T12:02:11.240Z,9.57
2023-04-15T12:03:11.878Z,8.17
2023-04-15T12:04:02.098Z,9.33
2023-04-15T12:05:03.088Z,9.17
2023-04-15T12:06:03.874Z,8.87
2023-04-15T12:07:04.458Z,8.47
2023-04-15T12:08:01.610Z,8.30
2023-04-15T12:09:07.926Z,10.00
2023-04-15T12:10:02.393Z,8.20
2023-04-15T12:11:01.428Z,9.37
2023-04-15T12:12:01.217Z,8.10
2023-04-15T12:13:05.974Z,7.87
2023-04-15T12:14:05.767Z,7.93
2023-04-15T12:15:01.573Z,7.87
2023-04-15T12:16:02.922Z,9.00
2023-04-15T12:17:02.909Z,8.80
2023-04-15T12:18:01.302Z,8.87
2023-04-15T12:19:09.814Z,7.20
2023-04-15T12:20:01.280Z,6.97
2023-04-15T12:21:08.371Z,7.43
2023-04-15T12:22:03.507Z,8.23
2023-04-15T12:23:05.070Z,8.17
2023-04-15T12:24:04.286Z,7.50
2023-04-15T12:25:01.435Z,7.87
2023-04-15T12:26:04.477Z,9.03
2023-04-15T12:27:03.263Z,7.87
2023-04-15T12:28:01.287Z,8.40
2023-04-15T12:29:03.127Z,8.00
2023-04-15T12:30:05.888Z,8.00
2023-04-15T12:31:07.018Z,8.23
2023-04-15T12:32:06.276Z,8.47
2023-04-15T12:33:02.419Z,6.60
2023-04-15T12:34:02.596Z,7.50
2023-04-15T12:35:01.221Z,7.77
2023-04-15T12:36:02.475Z,7.93
2023-04-15T12:37:02.594Z,7.47
2023-04-15T12:38:01.220Z,8.57
2023-04-15T12:39:01.863Z,8.30
2023-04-15T12:40:01.324Z,7.93
2023-04-15T12:41:01.563Z,7.80
2023-04-15T12:42:02.290Z,7.30
2023-04-15T12:43:01.607Z,8.87
2023-04-15T12:44:01.449Z,8.60
2023-04-15T12:45:01.338Z,9.00
2023-04-15T12:46:01.318Z,8.57
2023-04-15T12:47:02.271Z,7.47
2023-04-15T12:48:01.273Z,7.17
2023-04-15T12:49:01.226Z,9.23
2023-04-15T12:50:01.271Z,7.87
2023-04-15T12:51:01.614Z,8.77
2023-04-15T12:52:02.730Z,8.30
2023-04-15T12:53:02.383Z,7.70
2023-04-15T12:54:01.362Z,7.97
2023-04-15T12:55:01.270Z,8.57
2023-04-15T12:56:01.622Z,8.50
2023-04-15T12:57:01.256Z,7.53
2023-04-15T12:58:01.501Z,7.53
2023-04-15T12:59:01.221Z,7.67
2023-04-15T13:00:01.353Z,8.20
2023-04-15T13:01:01.606Z,8.90
2023-04-15T13:02:01.967Z,7.50
2023-04-15T13:03:02.054Z,6.63